createdAt,value
2017-12-15T00:00:25.697Z,23.90
2017-12-15T00:01:25.711Z,22.80
2017-12-15T00:02:25.637Z,24.70
2017-12-15T00:03:25.615Z,22.40
2017-12-15T00:04:25.598Z,24.10
2017-12-15T00:05:25.578Z,24.50
2017-12-15T00:06:25.549Z,23.80
2017-12-15T00:07:25.528Z,23.10
2017-12-15T00:08:25.504Z,23.80
2017-12-15T00:09:25.498Z,23.10
2017-12-15T00:10:25.466Z,23.10
2017-12-15T00:11:25.439Z,24.50
2017-12-15T00:12:25.418Z,23.30
2017-12-15T00:13:25.410Z,24.50
2017-12-15T00:14:25.378Z,25.00
2017-12-15T00:15:25.359Z,24.50
2017-12-15T00:16:25.330Z,24.40
2017-12-15T00:17:25.309Z,24.80
2017-12-15T00:18:25.288Z,25.60
2017-12-15T00:19:25.270Z,25.70
2017-12-15T00:20:25.248Z,26.40
2017-12-15T00:21:25.229Z,24.60
2017-12-15T00:22:25.198Z,27.10
2017-12-15T00:23:25.194Z,27.80
2017-12-15T00:24:25.162Z,27.60
2017-12-15T00:25:25.135Z,27.50
2017-12-15T00:26:25.115Z,25.90
2017-12-15T00:27:25.089Z,27.90
2017-12-15T00:28:25.072Z,27.20
2017-12-15T00:29:25.043Z,27.80
2017-12-15T00:30:25.022Z,27.30
2017-12-15T00:31:25.006Z,27.20
2017-12-15T00:32:24.978Z,27.80
2017-12-15T00:33:24.958Z,29.80
2017-12-15T00:34:24.935Z,27.10
2017-12-15T00:35:24.917Z,29.10
2017-12-15T00:36:24.895Z,28.20
2017-12-15T00:37:24.869Z,30.40
2017-12-15T00:38:24.847Z,28.50
2017-12-15T00:39:24.824Z,28.30
2017-12-15T00:40:24.808Z,28.90
2017-12-15T00:41:24.783Z,30.00
2017-12-15T00:42:24.759Z,29.50
2017-12-15T00:43:24.736Z,30.60
2017-12-15T00:44:24.728Z,29.80
2017-12-15T00:45:24.696Z,28.40
2017-12-15T00:46:24.669Z,28.90
2017-12-15T00:47:24.649Z,29.60
2017-12-15T00:48:24.627Z,30.70
2017-12-15T00:49:24.607Z,29.90
2017-12-15T00:50:24.585Z,30.10
2017-12-15T00:51:24.570Z,30.20
2017-12-15T00:52:24.538Z,30.80
2017-12-15T00:53:24.533Z,31.50
2017-12-15T00:54:24.499Z,30.70
2017-12-15T00:55:24.476Z,30.40
2017-12-15T00:56:24.451Z,30.40
2017-12-15T00:57:24.427Z,31.20
2017-12-15T00:58:24.409Z,30.70
2017-12-15T00:59:24.391Z,33.30
2017-12-15T01:00:24.366Z,31.10
2017-12-15T01:01:24.338Z,32.60
2017-12-15T01:02:24.331Z,32.20
2017-12-15T01:03:24.297Z,32.30
2017-12-15T01:04:24.279Z,31.90
2017-12-15T01:05:24.256Z,32.20
2017-12-15T01:06:24.237Z,31.20
2017-12-15T01:07:24.207Z,31.50
2017-12-15T01:08:24.189Z,31.80
2017-12-15T01:09:24.165Z,34.00
2017-12-15T01:10:24.144Z,32.30
2017-12-15T01:11:24.129Z,34.30
2017-12-15T01:12:24.098Z,32.10
2017-12-15T01:13:24.078Z,34.20
2017-12-15T01:14:24.057Z,33.80
2017-12-15T01:15:24.037Z,32.60
2017-12-15T01:16:24.013Z,33.10
2017-12-15T01:17:23.992Z,31.30
2017-12-15T01:18:23.967Z,31.60
2017-12-15T01:19:23.946Z,32.90
2017-12-15T01:20:23.927Z,32.30
2017-12-15T01:21:23.902Z,29.30
2017-12-15T01:22:23.883Z,29.80
2017-12-15T01:23:23.855Z,26.40
2017-12-15T01:24:23.838Z,25.70
2017-12-15T01:25:23.815Z,25.40
2017-12-15T01:26:23.789Z,26.70
2017-12-15T01:27:23.766Z,26.40
2017-12-15T01:28:23.747Z,24.90
2017-12-15T01:29:23.729Z,23.90
2017-12-15T01:30:23.705Z,25.30
2017-12-15T01:31:23.686Z,24.40
2017-12-15T01:32:23.661Z,25.30
2017-12-15T01:33:23.663Z,26.60
2017-12-15T01:34:23.618Z,25.60
2017-12-15T01:35:23.593Z,26.10
2017-12-15T01:36:23.570Z,27.00
2017-12-15T01:37:23.550Z,24.80
2017-12-15T01:38:23.529Z,27.60
2017-12-15T01:39:23.509Z,27.20
2017-12-15T01:40:23.483Z,27.70
2017-12-15T01:41:23.461Z,28.70
2017-12-15T01:42:23.439Z,27.40
2017-12-15T01:43:23.417Z,26.90
2017-12-15T01:44:23.398Z,27.10
2017-12-15T01:45:23.375Z,27.30
2017-12-15T01:46:23.354Z,27.40
2017-12-15T01:47:23.327Z,28.70
2017-12-15T01:48:23.309Z,29.10
2017-12-15T01:49:23.286Z,28.40
2017-12-15T01:50:23.268Z,28.40
2017-12-15T01:51:23.240Z,27.40
2017-12-15T01:52:23.220Z,29.50
2017-12-15T01:53:23.194Z,28.10
2017-12-15T01:54:23.175Z,28.80
2017-12-15T01:55:23.149Z,28.60
2017-12-15T01:56:23.129Z,28.30
2017-12-15T01:57:23.110Z,28.80
2017-12-15T01:58:23.084Z,28.60
2017-12-15T01:59:23.066Z,27.00
2017-12-15T02:00:23.052Z,26.90
2017-12-15T02:01:23.018Z,24.80
2017-12-15T02:02:23.001Z,26.80
2017-12-15T02:03:22.975Z,25.80
2017-12-15T02:04:22.962Z,25.20
2017-12-15T02:05:22.937Z,25.00
2017-12-15T02:06:22.910Z,24.50
2017-12-15T02:07:22.889Z,25.70
2017-12-15T02:08:22.867Z,23.60
2017-12-15T02:09:22.840Z,23.30
2017-12-15T02:10:22.820Z,21.40
2017-12-15T02:11:22.801Z,21.20
2017-12-15T02:12:22.781Z,19.30
2017-12-15T02:13:22.752Z,20.90
2017-12-15T02:14:22.740Z,20.80
2017-12-15T02:15:22.712Z,21.20
2017-12-15T02:16:22.693Z,19.90
2017-12-15T02:17:22.674Z,21.10
2017-12-15T02:18:22.654Z,21.40
2017-12-15T02:19:22.628Z,21.80
2017-12-15T02:20:22.598Z,21.60
2017-12-15T02:21:22.579Z,22.60
2017-12-15T02:22:22.559Z,22.10
2017-12-15T02:23:22.531Z,22.30
2017-12-15T02:24:22.515Z,22.40
2017-12-15T02:25:22.490Z,20.80
2017-12-15T02:26:22.468Z,22.10
2017-12-15T02:27:22.445Z,23.00
2017-12-15T02:28:22.421Z,23.50
2017-12-15T02:29:22.399Z,22.50
2017-12-15T02:30:22.379Z,22.20
2017-12-15T02:31:22.357Z,23.10
2017-12-15T02:32:22.334Z,23.40
2017-12-15T02:33:22.317Z,23.00
2017-12-15T02:34:22.294Z,23.20
2017-12-15T02:35:22.269Z,22.50
2017-12-15T02:36:22.246Z,23.20
2017-12-15T02:37:22.230Z,24.70
2017-12-15T02:38:22.200Z,23.60
2017-12-15T02:39:22.180Z,23.70
2017-12-15T02:40:22.161Z,24.30
2017-12-15T02:41:22.135Z,22.50
2017-12-15T02:42:22.110Z,25.10
2017-12-15T02:43:22.097Z,22.70
2017-12-15T02:44:22.072Z,22.00
2017-12-15T02:45:22.049Z,21.80
2017-12-15T02:46:22.022Z,22.10
2017-12-15T02:47:22.003Z,21.10
2017-12-15T02:48:21.983Z,20.30
2017-12-15T02:49:21.957Z,20.80
2017-12-15T02:50:21.934Z,18.70
2017-12-15T02:51:21.913Z,19.50
2017-12-15T02:52:21.896Z,20.70
2017-12-15T02:53:21.870Z,18.90
2017-12-15T02:54:21.850Z,20.90
2017-12-15T02:55:21.826Z,20.50
2017-12-15T02:56:21.800Z,21.00
2017-12-15T02:57:21.781Z,19.40
2017-12-15T02:58:21.755Z,19.80
2017-12-15T02:59:21.732Z,19.80
2017-12-15T03:00:21.709Z,20.30
2017-12-15T03:01:21.689Z,20.90
2017-12-15T03:02:21.667Z,20.60
2017-12-15T03:03:21.643Z,21.90
2017-12-15T03:04:21.625Z,20.70
2017-12-15T03:05:21.601Z,22.20
2017-12-15T03:06:21.578Z,21.70
2017-12-15T03:07:21.554Z,22.80
2017-12-15T03:08:21.534Z,21.50
2017-12-15T03:09:21.517Z,23.00
2017-12-15T03:10:21.488Z,21.90
2017-12-15T03:11:21.475Z,23.00
2017-12-15T03:12:21.445Z,23.60
2017-12-15T03:13:21.432Z,23.20
2017-12-15T03:14:21.406Z,21.00
2017-12-15T03:15:21.383Z,21.60
2017-12-15T03:16:21.356Z,21.70
2017-12-15T03:17:21.334Z,21.50
2017-12-15T03:18:21.312Z,22.10
2017-12-15T03:19:21.288Z,23.50
2017-12-15T03:20:21.281Z,23.40
2017-12-15T03:21:21.248Z,21.60
2017-12-15T03:22:21.223Z,21.80
2017-12-15T03:23:21.200Z,23.60
2017-12-15T03:24:21.179Z,23.90
2017-12-15T03:25:21.159Z,21.60
2017-12-15T03:26:21.134Z,24.60
2017-12-15T03:27:21.108Z,22.00
2017-12-15T03:28:21.093Z,22.30
2017-12-15T03:29:21.069Z,23.10
2017-12-15T03:30:21.047Z,23.80
2017-12-15T03:31:21.025Z,22.10
2017-12-15T03:32:21.003Z,24.60
2017-12-15T03:33:20.980Z,24.20
2017-12-15T03:34:20.961Z,25.80
2017-12-15T03:35:20.932Z,25.50
2017-12-15T03:36:20.909Z,26.00
2017-12-15T03:37:20.890Z,26.10
2017-12-15T03:38:20.868Z,26.40
2017-12-15T03:39:20.848Z,25.10
2017-12-15T03:40:20.828Z,25.30
2017-12-15T03:41:20.798Z,26.60
2017-12-15T03:42:20.779Z,26.00
2017-12-15T03:43:20.754Z,26.40
2017-12-15T03:44:20.734Z,26.00
2017-12-15T03:45:20.712Z,25.60
2017-12-15T03:46:20.695Z,25.50
2017-12-15T03:47:20.667Z,26.00
2017-12-15T03:48:20.646Z,25.30
2017-12-15T03:49:20.622Z,24.20
2017-12-15T03:50:20.595Z,25.80
2017-12-15T03:51:20.578Z,24.30
2017-12-15T03:52:20.558Z,26.00
2017-12-15T03:53:20.532Z,25.90
2017-12-15T03:54:20.510Z,24.30
2017-12-15T03:55:20.483Z,25.20
2017-12-15T03:56:20.460Z,25.10
2017-12-15T03:57:20.438Z,24.30
2017-12-15T03:58:20.417Z,24.20
2017-12-15T03:59:20.397Z,24.80
2017-12-15T04:00:20.376Z,26.60
2017-12-15T04:01:20.352Z,23.80
2017-12-15T04:02:20.329Z,24.10
2017-12-15T04:03:20.302Z,25.00
2017-12-15T04:04:20.284Z,25.20
2017-12-15T04:05:20.258Z,24.20
2017-12-15T04:06:20.238Z,25.00
2017-12-15T04:07:20.217Z,24.70
2017-12-15T04:08:20.200Z,24.70
2017-12-15T04:09:20.168Z,24.20
2017-12-15T04:10:20.143Z,23.90
2017-12-15T04:11:20.133Z,24.30
2017-12-15T04:12:20.103Z,24.10
2017-12-15T04:13:20.078Z,24.60
2017-12-15T04:14:20.059Z,23.40
2017-12-15T04:15:20.038Z,23.10
2017-12-15T04:16:20.017Z,25.00
2017-12-15T04:17:19.989Z,24.60
2017-12-15T04:18:19.969Z,24.20
2017-12-15T04:19:19.942Z,23.40
2017-12-15T04:20:19.918Z,25.70
2017-12-15T04:21:19.897Z,26.20
2017-12-15T04:22:19.873Z,26.50
2017-12-15T04:23:19.855Z,24.90
2017-12-15T04:24:19.827Z,23.70
2017-12-15T04:25:19.808Z,24.80
2017-12-15T04:26:19.785Z,23.90
2017-12-15T04:27:19.765Z,24.30
2017-12-15T04:28:19.736Z,27.40
2017-12-15T04:29:19.717Z,28.20
2017-12-15T04:30:19.691Z,26.50
2017-12-15T04:31:19.667Z,27.50
2017-12-15T04:32:19.651Z,28.00
2017-12-15T04:33:19.623Z,27.60
2017-12-15T04:34:19.603Z,27.00
2017-12-15T04:35:19.578Z,26.50
2017-12-15T04:36:19.555Z,28.70
2017-12-15T04:37:19.541Z,28.30
2017-12-15T04:38:19.507Z,28.70
2017-12-15T04:39:19.491Z,27.60
2017-12-15T04:40:19.468Z,28.70
2017-12-15T04:41:19.446Z,28.50
2017-12-15T04:42:19.418Z,29.40
2017-12-15T04:43:19.397Z,28.40
2017-12-15T04:44:19.374Z,27.50
2017-12-15T04:45:19.357Z,27.90
2017-12-15T04:46:19.326Z,29.20
2017-12-15T04:47:19.307Z,28.20
2017-12-15T04:48:19.287Z,28.50
2017-12-15T04:49:19.263Z,29.80
2017-12-15T04:50:19.237Z,28.80
2017-12-15T04:51:19.215Z,29.30
2017-12-15T04:52:19.190Z,29.90
2017-12-15T04:53:19.166Z,28.20
2017-12-15T04:54:19.148Z,29.20
2017-12-15T04:55:19.127Z,29.20
2017-12-15T04:56:19.102Z,28.50
2017-12-15T04:57:19.082Z,28.90
2017-12-15T04:58:19.081Z,27.80
2017-12-15T04:59:19.034Z,28.00
2017-12-15T05:00:19.020Z,26.50
2017-12-15T05:01:18.986Z,28.00
2017-12-15T05:02:18.979Z,26.40
2017-12-15T05:03:18.944Z,27.40
2017-12-15T05:04:18.917Z,27.40
2017-12-15T05:05:18.898Z,28.50
2017-12-15T05:06:18.873Z,30.20
2017-12-15T05:07:18.854Z,27.30
2017-12-15T05:08:18.828Z,26.50
2017-12-15T05:09:18.807Z,28.20
2017-12-15T05:10:18.786Z,26.10
2017-12-15T05:11:18.761Z,26.90
2017-12-15T05:12:18.763Z,27.10
2017-12-15T05:13:18.716Z,27.70
2017-12-15T05:14:18.698Z,27.40
2017-12-15T05:15:18.673Z,26.90
2017-12-15T05:16:18.654Z,28.00
2017-12-15T05:17:18.628Z,27.40
2017-12-15T05:18:18.606Z,28.00
2017-12-15T05:19:18.581Z,27.60
2017-12-15T05:20:18.560Z,28.50
2017-12-15T05:21:18.539Z,27.20
2017-12-15T05:22:18.520Z,27.70
2017-12-15T05:23:18.492Z,29.10
2017-12-15T05:24:18.467Z,27.30
2017-12-15T05:25:18.444Z,28.00
2017-12-15T05:26:18.421Z,29.90
2017-12-15T05:27:18.398Z,27.90
2017-12-15T05:28:18.378Z,30.20
2017-12-15T05:29:18.358Z,31.60
2017-12-15T05:30:18.334Z,31.90
2017-12-15T05:31:18.308Z,31.10
2017-12-15T05:32:18.286Z,31.60
2017-12-15T05:33:18.274Z,32.70
2017-12-15T05:34:18.242Z,33.90
2017-12-15T05:35:18.219Z,33.40
2017-12-15T05:36:18.201Z,36.40
2017-12-15T05:37:18.174Z,35.10
2017-12-15T05:38:18.154Z,33.60
2017-12-15T05:39:18.138Z,34.70
2017-12-15T05:40:18.105Z,35.40
2017-12-15T05:41:18.084Z,36.10
2017-12-15T05:42:18.063Z,34.90
2017-12-15T05:43:18.042Z,36.50
2017-12-15T05:44:18.020Z,33.00
2017-12-15T05:45:17.994Z,36.00
2017-12-15T05:46:17.978Z,36.70
2017-12-15T05:47:17.958Z,35.70
2017-12-15T05:48:17.929Z,37.00
2017-12-15T05:49:17.910Z,38.10
2017-12-15T05:50:17.885Z,37.50
2017-12-15T05:51:17.873Z,38.00
2017-12-15T05:52:17.839Z,38.80
2017-12-15T05:53:17.821Z,37.00
2017-12-15T05:54:17.794Z,39.00
2017-12-15T05:55:17.778Z,38.70
2017-12-15T05:56:17.751Z,39.30
2017-12-15T05:57:17.729Z,40.50
2017-12-15T05:58:17.705Z,38.60
2017-12-15T05:59:17.692Z,41.00
2017-12-15T06:00:17.670Z,40.40
2017-12-15T06:01:17.645Z,39.70
2017-12-15T06:02:17.618Z,38.10
2017-12-15T06:03:17.593Z,38.50
2017-12-15T06:04:17.576Z,39.90
2017-12-15T06:05:17.548Z,39.00
2017-12-15T06:06:17.533Z,41.10
2017-12-15T06:07:17.510Z,39.10
2017-12-15T06:08:17.486Z,39.30
2017-12-15T06:09:17.459Z,40.50
2017-12-15T06:10:17.440Z,42.10
2017-12-15T06:11:17.415Z,39.80
2017-12-15T06:12:17.396Z,39.20
2017-12-15T06:13:17.370Z,39.00
2017-12-15T06:14:17.348Z,38.50
2017-12-15T06:15:17.330Z,38.90
2017-12-15T06:16:17.306Z,36.30
2017-12-15T06:17:17.282Z,36.50
2017-12-15T06:18:17.260Z,37.80
2017-12-15T06:19:17.245Z,38.60
2017-12-15T06:20:17.216Z,38.50
2017-12-15T06:21:17.191Z,38.10
2017-12-15T06:22:17.169Z,38.20
2017-12-15T06:23:17.160Z,38.40
2017-12-15T06:24:17.130Z,38.20
2017-12-15T06:25:17.109Z,37.80
2017-12-15T06:26:17.084Z,37.00
2017-12-15T06:27:17.065Z,35.80
2017-12-15T06:28:17.040Z,37.30
2017-12-15T06:29:17.018Z,37.40
2017-12-15T06:30:17.004Z,37.30
2017-12-15T06:31:16.969Z,34.60
2017-12-15T06:32:16.948Z,35.40
2017-12-15T06:33:16.935Z,34.80
2017-12-15T06:34:16.906Z,35.60
2017-12-15T06:35:16.883Z,34.80
2017-12-15T06:36:16.861Z,34.50
2017-12-15T06:37:16.845Z,35.90
2017-12-15T06:38:16.822Z,37.30
2017-12-15T06:39:16.792Z,35.90
2017-12-15T06:40:16.772Z,35.70
2017-12-15T06:41:16.752Z,35.90
2017-12-15T06:42:16.724Z,36.00
2017-12-15T06:43:16.708Z,35.50
2017-12-15T06:44:16.684Z,34.10
2017-12-15T06:45:16.657Z,34.00
2017-12-15T06:46:16.639Z,32.20
2017-12-15T06:47:16.612Z,33.90
2017-12-15T06:48:16.597Z,34.50
2017-12-15T06:49:16.572Z,35.30
2017-12-15T06:50:16.551Z,35.00
2017-12-15T06:51:16.529Z,32.60
2017-12-15T06:52:16.501Z,34.40
2017-12-15T06:53:16.490Z,34.50
2017-12-15T06:54:16.460Z,34.10
2017-12-15T06:55:16.441Z,34.20
2017-12-15T06:56:16.415Z,35.20
2017-12-15T06:57:16.400Z,34.40
2017-12-15T06:58:16.368Z,36.00
2017-12-15T06:59:16.349Z,36.40
2017-12-15T07:00:16.327Z,36.20
2017-12-15T07:01:16.309Z,35.40
2017-12-15T07:02:16.283Z,36.20
2017-12-15T07:03:16.268Z,37.00
2017-12-15T07:04:16.239Z,39.20
2017-12-15T07:05:16.217Z,39.20
2017-12-15T07:06:16.195Z,40.10
2017-12-15T07:07:16.171Z,39.20
2017-12-15T07:08:16.150Z,38.20
2017-12-15T07:09:16.130Z,38.20
2017-12-15T07:10:16.111Z,39.70
2017-12-15T07:11:16.079Z,38.50
2017-12-15T07:12:16.057Z,36.70
2017-12-15T07:13:16.041Z,38.00
2017-12-15T07:14:16.017Z,38.80
2017-12-15T07:15:15.989Z,39.40
2017-12-15T07:16:15.968Z,38.10
2017-12-15T07:17:15.946Z,39.00
2017-12-15T07:18:15.924Z,38.20
2017-12-15T07:19:15.904Z,39.60
2017-12-15T07:20:15.879Z,37.00
2017-12-15T07:21:15.858Z,38.40
2017-12-15T07:22:15.836Z,39.30
2017-12-15T07:23:15.818Z,37.80
2017-12-15T07:24:15.799Z,39.30
2017-12-15T07:25:15.772Z,40.30
2017-12-15T07:26:15.748Z,38.20
2017-12-15T07:27:15.729Z,37.50
2017-12-15T07:28:15.705Z,37.90
2017-12-15T07:29:15.686Z,38.30
2017-12-15T07:30:15.663Z,37.30
2017-12-15T07:31:15.640Z,37.80
2017-12-15T07:32:15.613Z,36.40
2017-12-15T07:33:15.599Z,35.70
2017-12-15T07:34:15.578Z,36.80
2017-12-15T07:35:15.550Z,35.20
2017-12-15T07:36:15.527Z,36.70
2017-12-15T07:37:15.509Z,36.80
2017-12-15T07:38:15.498Z,35.60
2017-12-15T07:39:15.469Z,35.20
2017-12-15T07:40:15.445Z,33.70
2017-12-15T07:41:15.417Z,33.70
2017-12-15T07:42:15.396Z,34.40
2017-12-15T07:43:15.375Z,35.20
2017-12-15T07:44:15.352Z,34.50
2017-12-15T07:45:15.364Z,34.10
2017-12-15T07:46:15.309Z,35.30
2017-12-15T07:47:15.291Z,34.80
2017-12-15T07:48:15.266Z,35.30
2017-12-15T07:49:15.243Z,34.30
2017-12-15T07:50:15.222Z,34.00
2017-12-15T07:51:15.213Z,34.30
2017-12-15T07:52:15.177Z,33.40
2017-12-15T07:53:15.153Z,35.10
2017-12-15T07:54:15.135Z,33.00
2017-12-15T07:55:15.112Z,32.30
2017-12-15T07:56:15.089Z,34.90
2017-12-15T07:57:15.065Z,33.90
2017-12-15T07:58:15.045Z,31.60
2017-12-15T07:59:15.037Z,34.10
2017-12-15T08:00:15.003Z,33.90
2017-12-15T08:01:14.980Z,35.10
2017-12-15T08:02:14.959Z,34.80
2017-12-15T08:03:14.933Z,33.90
2017-12-15T08:04:14.916Z,33.50
2017-12-15T08:05:14.895Z,34.10
2017-12-15T08:06:14.869Z,31.80
2017-12-15T08:07:14.853Z,32.80
2017-12-15T08:08:14.835Z,32.70
2017-12-15T08:09:14.808Z,32.00
2017-12-15T08:10:14.782Z,33.20
2017-12-15T08:11:14.758Z,33.50
2017-12-15T08:12:14.741Z,31.10
2017-12-15T08:13:14.717Z,32.70
2017-12-15T08:14:14.696Z,32.30
2017-12-15T08:15:14.677Z,31.70
2017-12-15T08:16:14.654Z,32.20
2017-12-15T08:17:14.630Z,33.30
2017-12-15T08:18:14.606Z,31.90
2017-12-15T08:19:14.597Z,32.20
2017-12-15T08:20:14.566Z,32.60
2017-12-15T08:21:14.543Z,31.90
2017-12-15T08:22:14.519Z,31.50
2017-12-15T08:23:14.498Z,31.70
2017-12-15T08:24:14.476Z,33.50
2017-12-15T08:25:14.462Z,31.90
2017-12-15T08:26:14.435Z,34.00
2017-12-15T08:27:14.406Z,32.90
2017-12-15T08:28:14.392Z,30.40
2017-12-15T08:29:14.366Z,31.60
2017-12-15T08:30:14.344Z,33.90
2017-12-15T08:31:14.330Z,32.70
2017-12-15T08:32:14.302Z,33.20
2017-12-15T08:33:14.282Z,32.60
2017-12-15T08:34:14.257Z,31.90
2017-12-15T08:35:14.233Z,31.10
2017-12-15T08:36:14.214Z,32.70
2017-12-15T08:37:14.193Z,31.60
2017-12-15T08:38:14.168Z,29.80
2017-12-15T08:39:14.144Z,31.90
2017-12-15T08:40:14.128Z,31.50
2017-12-15T08:41:14.106Z,32.50
2017-12-15T08:42:14.080Z,32.20
2017-12-15T08:43:14.059Z,31.40
2017-12-15T08:44:14.039Z,31.70
2017-12-15T08:45:14.020Z,30.60
2017-12-15T08:46:13.992Z,31.20
2017-12-15T08:47:13.979Z,31.10
2017-12-15T08:48:13.949Z,31.30
2017-12-15T08:49:13.931Z,31.30
2017-12-15T08:50:13.911Z,31.30
2017-12-15T08:51:13.887Z,30.80
2017-12-15T08:52:13.868Z,30.20
2017-12-15T08:53:13.844Z,30.10
2017-12-15T08:54:13.822Z,30.00
2017-12-15T08:55:13.801Z,28.60
2017-12-15T08:56:13.780Z,29.70
2017-12-15T08:57:13.767Z,30.20
2017-12-15T08:58:13.735Z,30.80
2017-12-15T08:59:13.710Z,31.30
2017-12-15T09:00:13.691Z,31.50
2017-12-15T09:01:13.674Z,32.00
2017-12-15T09:02:13.650Z,29.80
2017-12-15T09:03:13.664Z,29.80
2017-12-15T09:04:13.599Z,29.30
2017-12-15T09:05:13.579Z,29.70
2017-12-15T09:06:13.559Z,28.40
2017-12-15T09:07:13.535Z,30.40
2017-12-15T09:08:13.518Z,31.30
2017-12-15T09:09:13.495Z,31.20
2017-12-15T09:10:13.471Z,28.40
2017-12-15T09:11:13.449Z,28.30
2017-12-15T09:12:13.428Z,30.30
2017-12-15T09:13:13.408Z,29.40
2017-12-15T09:14:13.385Z,29.50
2017-12-15T09:15:13.375Z,32.20
2017-12-15T09:16:13.338Z,30.00
2017-12-15T09:17:13.319Z,28.90
2017-12-15T09:18:13.296Z,28.80
2017-12-15T09:19:13.273Z,28.30
2017-12-15T09:20:13.266Z,28.30
2017-12-15T09:21:13.233Z,29.20
2017-12-15T09:22:13.211Z,30.00
2017-12-15T09:23:13.191Z,28.40
2017-12-15T09:24:13.169Z,28.80
2017-12-15T09:25:13.151Z,28.00
2017-12-15T09:26:13.125Z,30.30
2017-12-15T09:27:13.099Z,28.60
2017-12-15T09:28:13.083Z,28.30
2017-12-15T09:29:13.056Z,29.20
2017-12-15T09:30:13.082Z,28.40
2017-12-15T09:31:13.019Z,29.40
2017-12-15T09:32:13.000Z,28.90
2017-12-15T09:33:12.972Z,27.20
2017-12-15T09:34:12.949Z,28.30
2017-12-15T09:35:12.928Z,27.70
2017-12-15T09:36:12.906Z,27.50
2017-12-15T09:37:12.893Z,26.60
2017-12-15T09:38:12.866Z,26.80
2017-12-15T09:39:12.839Z,25.90
2017-12-15T09:40:12.823Z,26.40
2017-12-15T09:41:12.797Z,26.90
2017-12-15T09:42:12.774Z,26.60
2017-12-15T09:43:12.754Z,25.90
2017-12-15T09:44:12.732Z,26.40
2017-12-15T09:45:12.711Z,24.60
2017-12-15T09:46:12.687Z,25.50
2017-12-15T09:47:12.670Z,27.40
2017-12-15T09:48:12.646Z,25.00
2017-12-15T09:49:12.624Z,25.70
2017-12-15T09:50:12.611Z,26.10
2017-12-15T09:51:12.580Z,26.00
2017-12-15T09:52:12.607Z,25.30
2017-12-15T09:53:12.538Z,26.90
2017-12-15T09:54:12.515Z,26.20
2017-12-15T09:55:12.496Z,24.70
2017-12-15T09:56:12.473Z,24.80
2017-12-15T09:57:12.447Z,24.40
2017-12-15T09:58:12.432Z,24.20
2017-12-15T09:59:12.406Z,23.80
2017-12-15T10:00:12.388Z,24.80
2017-12-15T10:01:12.364Z,23.30
2017-12-15T10:02:12.338Z,26.70
2017-12-15T10:03:12.318Z,23.00
2017-12-15T10:04:12.298Z,25.90
2017-12-15T10:05:12.274Z,24.90
2017-12-15T10:06:12.258Z,25.20
2017-12-15T10:07:12.230Z,24.40
2017-12-15T10:08:12.209Z,26.90
2017-12-15T10:09:12.186Z,24.80
2017-12-15T10:10:12.170Z,25.10
2017-12-15T10:11:12.145Z,24.40
2017-12-15T10:12:12.122Z,24.30
2017-12-15T10:13:12.107Z,24.40
2017-12-15T10:14:12.077Z,23.20
2017-12-15T10:15:12.058Z,24.90
2017-12-15T10:16:12.042Z,24.10
2017-12-15T10:17:12.016Z,26.30
2017-12-15T10:18:11.993Z,24.90
2017-12-15T10:19:11.978Z,25.70
2017-12-15T10:20:11.949Z,24.50
2017-12-15T10:21:11.928Z,23.90
2017-12-15T10:22:11.907Z,24.70
2017-12-15T10:23:11.928Z,24.90
2017-12-15T10:24:11.860Z,25.40
2017-12-15T10:25:11.837Z,24.80
2017-12-15T10:26:11.819Z,24.60
2017-12-15T10:27:11.798Z,24.20
2017-12-15T10:28:11.773Z,24.90
2017-12-15T10:29:11.759Z,23.10
2017-12-15T10:30:11.738Z,24.00
2017-12-15T10:31:11.708Z,22.60
2017-12-15T10:32:11.689Z,21.60
2017-12-15T10:33:11.669Z,20.60
2017-12-15T10:34:11.650Z,21.20
2017-12-15T10:35:11.625Z,21.00
2017-12-15T10:36:11.609Z,20.50
2017-12-15T10:37:11.583Z,20.20
2017-12-15T10:38:11.559Z,20.60
2017-12-15T10:39:11.538Z,20.00
2017-12-15T10:40:11.519Z,21.50
2017-12-15T10:41:11.499Z,20.90
2017-12-15T10:42:11.477Z,21.40
2017-12-15T10:43:11.452Z,20.60
2017-12-15T10:44:11.432Z,19.60
2017-12-15T10:45:11.409Z,21.90
2017-12-15T10:46:11.390Z,20.70
2017-12-15T10:47:11.362Z,21.50
2017-12-15T10:48:11.346Z,21.10
2017-12-15T10:49:11.324Z,20.10
2017-12-15T10:50:11.302Z,21.80
2017-12-15T10:51:11.279Z,22.70
2017-12-15T10:52:11.258Z,21.30
2017-12-15T10:53:11.234Z,20.90
2017-12-15T10:54:11.211Z,21.60
2017-12-15T10:55:11.214Z,21.50
2017-12-15T10:56:11.167Z,21.00
2017-12-15T10:57:11.149Z,21.90
2017-12-15T10:58:11.126Z,21.50
2017-12-15T10:59:11.109Z,21.60
2017-12-15T11:00:11.086Z,21.20
2017-12-15T11:01:11.061Z,22.90
2017-12-15T11:02:11.039Z,22.60
2017-12-15T11:03:11.018Z,25.70
2017-12-15T11:04:10.998Z,24.00
2017-12-15T11:05:10.978Z,24.70
2017-12-15T11:06:10.962Z,23.50
2017-12-15T11:07:10.935Z,27.60
2017-12-15T11:08:10.909Z,25.70
2017-12-15T11:09:10.894Z,25.60
2017-12-15T11:10:10.870Z,25.90
2017-12-15T11:11:10.847Z,31.70
2017-12-15T11:12:10.828Z,35.50
2017-12-15T11:13:10.807Z,32.10
2017-12-15T11:14:10.783Z,31.30
2017-12-15T11:15:10.768Z,26.50
2017-12-15T11:16:10.743Z,22.10
2017-12-15T11:17:10.718Z,22.60
2017-12-15T11:18:10.698Z,23.30
2017-12-15T11:19:10.677Z,21.70
2017-12-15T11:20:10.656Z,22.90
2017-12-15T11:21:10.632Z,22.10
2017-12-15T11:22:10.616Z,21.30
2017-12-15T11:23:10.590Z,22.40
2017-12-15T11:24:10.570Z,20.40
2017-12-15T11:25:10.549Z,20.80
2017-12-15T11:26:10.533Z,23.20
2017-12-15T11:27:10.507Z,21.00
2017-12-15T11:28:10.489Z,21.10
2017-12-15T11:29:10.465Z,20.50
2017-12-15T11:30:10.448Z,20.10
2017-12-15T11:31:10.424Z,19.40
2017-12-15T11:32:10.398Z,20.20
2017-12-15T11:33:10.378Z,20.00
2017-12-15T11:34:10.356Z,18.40
2017-12-15T11:35:10.339Z,19.40
2017-12-15T11:36:10.315Z,18.60
2017-12-15T11:37:10.299Z,18.10
2017-12-15T11:38:10.280Z,17.80
2017-12-15T11:39:10.254Z,18.20
2017-12-15T11:40:10.241Z,20.50
2017-12-15T11:41:10.209Z,16.60
2017-12-15T11:42:10.190Z,20.40
2017-12-15T11:43:10.165Z,17.10
2017-12-15T11:44:10.153Z,16.10
2017-12-15T11:45:10.126Z,16.30
2017-12-15T11:46:10.102Z,16.70
2017-12-15T11:47:10.088Z,15.80
2017-12-15T11:48:10.058Z,14.30
2017-12-15T11:49:10.040Z,12.60
2017-12-15T11:50:10.025Z,13.10
2017-12-15T11:51:09.996Z,13.00
2017-12-15T11:52:09.982Z,12.50
2017-12-15T11:53:09.959Z,11.40
2017-12-15T11:54:09.927Z,9.70
2017-12-15T11:55:09.914Z,9.20
2017-12-15T11:56:09.889Z,9.50
2017-12-15T11:57:09.871Z,8.50
2017-12-15T11:58:09.849Z,9.30
2017-12-15T11:59:09.826Z,8.80
2017-12-15T12:00:09.810Z,9.10
2017-12-15T12:01:09.784Z,8.60
2017-12-15T12:02:09.761Z,9.50
2017-12-15T12:03:09.740Z,8.50
2017-12-15T12:04:09.719Z,9.20
2017-12-15T12:05:09.696Z,9.30
2017-12-15T12:06:09.674Z,9.20
2017-12-15T12:07:09.652Z,8.50
2017-12-15T12:08:09.641Z,7.90
2017-12-15T12:09:09.623Z,8.80
2017-12-15T12:10:09.596Z,8.40
2017-12-15T12:11:09.566Z,9.20
2017-12-15T12:12:09.546Z,8.70
2017-12-15T12:13:09.530Z,9.40
2017-12-15T12:14:09.510Z,8.70
2017-12-15T12:15:09.478Z,8.10
2017-12-15T12:16:09.461Z,9.20
2017-12-15T12:17:09.443Z,7.90
2017-12-15T12:18:09.421Z,8.20
2017-12-15T12:19:09.394Z,7.80
2017-12-15T12:20:09.378Z,8.30
2017-12-15T12:21:09.355Z,8.20
2017-12-15T12:22:09.335Z,7.90
2017-12-15T12:23:09.309Z,7.90
2017-12-15T12:24:09.287Z,8.80
2017-12-15T12:25:09.271Z,7.80
2017-12-15T12:26:09.245Z,7.90
2017-12-15T12:27:09.229Z,8.10
2017-12-15T12:28:09.206Z,7.30
2017-12-15T12:29:09.184Z,8.40
2017-12-15T12:30:09.169Z,7.50
2017-12-15T12:31:09.139Z,7.30
2017-12-15T12:32:09.121Z,7.10
2017-12-15T12:33:09.096Z,7.70
2017-12-15T12:34:09.077Z,7.50
2017-12-15T12:35:09.051Z,7.20
2017-12-15T12:36:09.043Z,6.90
2017-12-15T12:37:09.019Z,7.30
2017-12-15T12:38:08.989Z,7.90
2017-12-15T12:39:08.970Z,8.10
2017-12-15T12:40:08.949Z,7.90
2017-12-15T12:41:08.926Z,7.30
2017-12-15T12:42:08.911Z,7.90
2017-12-15T12:43:08.880Z,7.10
2017-12-15T12:44:08.862Z,6.70
2017-12-15T12:45:08.843Z,7.10
2017-12-15T12:46:08.816Z,6.80
2017-12-15T12:47:08.798Z,6.80
2017-12-15T12:48:08.774Z,7.20
2017-12-15T12:49:08.752Z,7.70
2017-12-15T12:50:08.740Z,7.60
2017-12-15T12:51:08.710Z,7.10
2017-12-15T12:52:08.689Z,7.40
2017-12-15T12:53:08.673Z,7.70
2017-12-15T12:54:08.648Z,8.20